sensor_id;sensor_type;location;lat;lon;timestamp;P1;durP1;ratioP1;P2;durP2;ratioP2
18780;SDS011;9519;51.890;8.970;2023-02-01T00:02:33;25.40;;;4.63;;
18780;SDS011;9519;51.890;8.970;2023-02-01T00:07:36;24.70;;;4.13;;
18780;SDS011;9519;51.890;8.970;2023-02-01T00:12:38;30.13;;;6.47;;
18780;SDS011;9519;51.890;8.970;2023-02-01T00:17:42;26.17;;;4.60;;
18780;SDS011;9519;51.890;8.970;2023-02-01T00:22:44;18.20;;;4.20;;
18780;SDS011;9519;51.890;8.970;2023-02-01T00:27:48;28.30;;;6.83;;
18780;SDS011;9519;51.890;8.970;2023-02-01T00:32:52;20.17;;;4.50;;
18780;SDS011;9519;51.890;8.970;2023-02-01T00:37:54;28.17;;;6.87;;
18780;SDS011;9519;51.890;8.970;2023-02-01T00:42:58;39.27;;;10.57;;
18780;SDS011;9519;51.890;8.970;2023-02-01T00:48:01;28.77;;;7.90;;
18780;SDS011;9519;51.890;8.970;2023-02-01T00:53:04;25.50;;;5.73;;
18780;SDS011;9519;51.890;8.970;2023-02-01T00:58:06;23.47;;;4.00;;
18780;SDS011;9519;51.890;8.970;2023-02-01T01:03:10;31.23;;;6.43;;
18780;SDS011;9519;51.890;8.970;2023-02-01T01:08:18;24.37;;;4.80;;
18780;SDS011;9519;51.890;8.970;2023-02-01T01:13:20;22.87;;;4.93;;
18780;SDS011;9519;51.890;8.970;2023-02-01T01:18:24;22.57;;;5.43;;
18780;SDS011;9519;51.890;8.970;2023-02-01T01:23:26;21.50;;;5.23;;
18780;SDS011;9519;51.890;8.970;2023-02-01T01:28:28;28.47;;;7.43;;
18780;SDS011;9519;51.890;8.970;2023-02-01T01:33:31;26.20;;;6.97;;
18780;SDS011;9519;51.890;8.970;2023-02-01T01:38:34;26.53;;;8.77;;
18780;SDS011;9519;51.890;8.970;2023-02-01T01:43:47;23.23;;;6.43;;
18780;SDS011;9519;51.890;8.970;2023-02-01T01:49:06;22.30;;;6.67;;
18780;SDS011;9519;51.890;8.970;2023-02-01T01:54:14;24.93;;;6.53;;
18780;SDS011;9519;51.890;8.970;2023-02-01T01:59:25;26.10;;;5.50;;
18780;SDS011;9519;51.890;8.970;2023-02-01T02:04:29;26.83;;;5.70;;
18780;SDS011;9519;51.890;8.970;2023-02-01T02:09:32;26.80;;;6.27;;
18780;SDS011;9519;51.890;8.970;2023-02-01T02:14:35;24.13;;;6.13;;
18780;SDS011;9519;51.890;8.970;2023-02-01T02:20:08;40.10;;;10.13;;
18780;SDS011;9519;51.890;8.970;2023-02-01T02:38:12;27.87;;;7.50;;
18780;SDS011;9519;51.890;8.970;2023-02-01T02:43:31;25.90;;;7.40;;
18780;SDS011;9519;51.890;8.970;2023-02-01T02:49:04;30.30;;;8.77;;
18780;SDS011;9519;51.890;8.970;2023-02-01T02:54:16;27.13;;;8.07;;
18780;SDS011;9519;51.890;8.970;2023-02-01T02:59:41;29.73;;;8.27;;
18780;SDS011;9519;51.890;8.970;2023-02-01T03:05:05;34.27;;;7.03;;
18780;SDS011;9519;51.890;8.970;2023-02-01T03:10:10;36.07;;;8.00;;
18780;SDS011;9519;51.890;8.970;2023-02-01T03:15:31;25.63;;;7.73;;
18780;SDS011;9519;51.890;8.970;2023-02-01T03:20:39;33.67;;;7.43;;
18780;SDS011;9519;51.890;8.970;2023-02-01T03:25:47;27.93;;;6.00;;
18780;SDS011;9519;51.890;8.970;2023-02-01T03:30:52;19.83;;;5.60;;
18780;SDS011;9519;51.890;8.970;2023-02-01T03:35:57;28.40;;;6.10;;
18780;SDS011;9519;51.890;8.970;2023-02-01T03:41:12;20.33;;;5.27;;
18780;SDS011;9519;51.890;8.970;2023-02-01T03:46:23;22.73;;;5.43;;
18780;SDS011;9519;51.890;8.970;2023-02-01T03:51:33;22.63;;;4.50;;
18780;SDS011;9519;51.890;8.970;2023-02-01T03:56:42;20.63;;;3.90;;
18780;SDS011;9519;51.890;8.970;2023-02-01T04:01:48;24.03;;;4.63;;
18780;SDS011;9519;51.890;8.970;2023-02-01T04:06:50;17.03;;;4.30;;
18780;SDS011;9519;51.890;8.970;2023-02-01T04:11:54;21.90;;;4.20;;
18780;SDS011;9519;51.890;8.970;2023-02-01T04:16:58;18.23;;;3.73;;
18780;SDS011;9519;51.890;8.970;2023-02-01T04:22:00;18.57;;;4.10;;
18780;SDS011;9519;51.890;8.970;2023-02-01T04:27:04;19.80;;;3.67;;
18780;SDS011;9519;51.890;8.970;2023-02-01T04:32:06;24.20;;;4.50;;
18780;SDS011;9519;51.890;8.970;2023-02-01T04:37:10;24.43;;;4.60;;
18780;SDS011;9519;51.890;8.970;2023-02-01T04:42:13;19.83;;;4.17;;
18780;SDS011;9519;51.890;8.970;2023-02-01T04:47:15;16.93;;;3.73;;
18780;SDS011;9519;51.890;8.970;2023-02-01T04:52:17;27.23;;;4.20;;
18780;SDS011;9519;51.890;8.970;2023-02-01T04:57:21;18.97;;;3.77;;
18780;SDS011;9519;51.890;8.970;2023-02-01T05:02:23;22.90;;;4.17;;
18780;SDS011;9519;51.890;8.970;2023-02-01T05:07:25;20.13;;;4.27;;
18780;SDS011;9519;51.890;8.970;2023-02-01T05:12:28;20.10;;;4.50;;
18780;SDS011;9519;51.890;8.970;2023-02-01T05:17:48;16.70;;;4.93;;
18780;SDS011;9519;51.890;8.970;2023-02-01T05:22:50;26.47;;;4.43;;
18780;SDS011;9519;51.890;8.970;2023-02-01T05:27:54;23.33;;;4.97;;
18780;SDS011;9519;51.890;8.970;2023-02-01T05:32:56;22.80;;;4.87;;
18780;SDS011;9519;51.890;8.970;2023-02-01T05:37:58;25.00;;;5.27;;
18780;SDS011;9519;51.890;8.970;2023-02-01T05:43:01;28.80;;;5.67;;
18780;SDS011;9519;51.890;8.970;2023-02-01T05:48:04;18.10;;;3.73;;
18780;SDS011;9519;51.890;8.970;2023-02-01T05:53:06;21.90;;;4.87;;
18780;SDS011;9519;51.890;8.970;2023-02-01T05:58:09;19.67;;;4.30;;
18780;SDS011;9519;51.890;8.970;2023-02-01T06:03:12;25.07;;;4.80;;
18780;SDS011;9519;51.890;8.970;2023-02-01T06:08:14;20.60;;;4.90;;
18780;SDS011;9519;51.890;8.970;2023-02-01T06:13:18;30.20;;;4.87;;
18780;SDS011;9519;51.890;8.970;2023-02-01T06:18:20;29.33;;;5.47;;
18780;SDS011;9519;51.890;8.970;2023-02-01T06:23:22;27.73;;;5.00;;
18780;SDS011;9519;51.890;8.970;2023-02-01T06:28:28;22.77;;;4.87;;
18780;SDS011;9519;51.890;8.970;2023-02-01T06:33:32;21.10;;;4.60;;
18780;SDS011;9519;51.890;8.970;2023-02-01T06:38:34;19.20;;;5.30;;
18780;SDS011;9519;51.890;8.970;2023-02-01T06:43:38;21.87;;;4.20;;
18780;SDS011;9519;51.890;8.970;2023-02-01T06:48:40;24.80;;;5.93;;
18780;SDS011;9519;51.890;8.970;2023-02-01T06:53:42;19.57;;;4.30;;
18780;SDS011;9519;51.890;8.970;2023-02-01T06:58:46;19.13;;;4.93;;
18780;SDS011;9519;51.890;8.970;2023-02-01T07:03:49;25.77;;;5.53;;
18780;SDS011;9519;51.890;8.970;2023-02-01T07:08:52;23.40;;;5.60;;
18780;SDS011;9519;51.890;8.970;2023-02-01T07:13:57;19.70;;;4.83;;
18780;SDS011;9519;51.890;8.970;2023-02-01T07:18:59;26.13;;;6.27;;
18780;SDS011;9519;51.890;8.970;2023-02-01T07:30:19;26.80;;;6.63;;
18780;SDS011;9519;51.890;8.970;2023-02-01T07:35:21;21.57;;;4.43;;
18780;SDS011;9519;51.890;8.970;2023-02-01T07:40:23;21.87;;;5.20;;
18780;SDS011;9519;51.890;8.970;2023-02-01T07:45:29;29.60;;;4.83;;
18780;SDS011;9519;51.890;8.970;2023-02-01T07:50:32;20.67;;;4.23;;
18780;SDS011;9519;51.890;8.970;2023-02-01T07:55:37;22.57;;;5.10;;
18780;SDS011;9519;51.890;8.970;2023-02-01T08:00:40;25.23;;;4.80;;
18780;SDS011;9519;51.890;8.970;2023-02-01T08:06:00;28.37;;;5.23;;
18780;SDS011;9519;51.890;8.970;2023-02-01T08:11:03;18.53;;;4.60;;
18780;SDS011;9519;51.890;8.970;2023-02-01T08:16:09;19.77;;;4.57;;
18780;SDS011;9519;51.890;8.970;2023-02-01T08:21:13;20.07;;;4.10;;
18780;SDS011;9519;51.890;8.970;2023-02-01T08:26:18;27.37;;;4.60;;
18780;SDS011;9519;51.890;8.970;2023-02-01T08:31:24;25.27;;;4.53;;
18780;SDS011;9519;51.890;8.970;2023-02-01T08:36:29;18.33;;;4.17;;
18780;SDS011;9519;51.890;8.970;2023-02-01T08:41:32;18.70;;;4.20;;
18780;SDS011;9519;51.890;8.970;2023-02-01T08:46:35;23.40;;;4.77;;
18780;SDS011;9519;51.890;8.970;2023-02-01T08:51:38;15.07;;;3.97;;
18780;SDS011;9519;51.890;8.970;2023-02-01T08:56:40;26.40;;;4.83;;
18780;SDS011;9519;51.890;8.970;2023-02-01T09:01:43;22.17;;;4.43;;
18780;SDS011;9519;51.890;8.970;2023-02-01T09:06:45;17.30;;;4.43;;
18780;SDS011;9519;51.890;8.970;2023-02-01T09:11:47;30.27;;;5.33;;
18780;SDS011;9519;51.890;8.970;2023-02-01T09:16:51;23.23;;;5.07;;
18780;SDS011;9519;51.890;8.970;2023-02-01T09:21:53;20.90;;;4.70;;
18780;SDS011;9519;51.890;8.970;2023-02-01T09:26:55;23.73;;;4.13;;
18780;SDS011;9519;51.890;8.970;2023-02-01T09:31:59;24.03;;;5.03;;
18780;SDS011;9519;51.890;8.970;2023-02-01T09:37:01;18.93;;;4.47;;
18780;SDS011;9519;51.890;8.970;2023-02-01T09:42:07;23.73;;;4.77;;
18780;SDS011;9519;51.890;8.970;2023-02-01T09:47:34;22.07;;;4.50;;
18780;SDS011;9519;51.890;8.970;2023-02-01T09:52:45;24.17;;;4.60;;
18780;SDS011;9519;51.890;8.970;2023-02-01T09:57:55;21.87;;;4.10;;
18780;SDS011;9519;51.890;8.970;2023-02-01T10:03:07;17.37;;;3.73;;
18780;SDS011;9519;51.890;8.970;2023-02-01T10:08:16;21.47;;;4.73;;
18780;SDS011;9519;51.890;8.970;2023-02-01T10:13:37;24.53;;;5.20;;
18780;SDS011;9519;51.890;8.970;2023-02-01T10:19:04;18.10;;;4.17;;
18780;SDS011;9519;51.890;8.970;2023-02-01T10:24:39;20.23;;;4.47;;
18780;SDS011;9519;51.890;8.970;2023-02-01T10:29:46;25.00;;;5.23;;
18780;SDS011;9519;51.890;8.970;2023-02-01T10:34:57;18.67;;;4.73;;
18780;SDS011;9519;51.890;8.970;2023-02-01T10:40:02;22.53;;;5.07;;
18780;SDS011;9519;51.890;8.970;2023-02-01T10:45:18;19.77;;;4.70;;
18780;SDS011;9519;51.890;8.970;2023-02-01T10:50:35;23.97;;;4.90;;
18780;SDS011;9519;51.890;8.970;2023-02-01T10:55:46;21.27;;;4.73;;
18780;SDS011;9519;51.890;8.970;2023-02-01T11:00:52;19.37;;;5.07;;
18780;SDS011;9519;51.890;8.970;2023-02-01T11:05:59;22.90;;;5.53;;
18780;SDS011;9519;51.890;8.970;2023-02-01T11:11:04;15.17;;;4.53;;
18780;SDS011;9519;51.890;8.970;2023-02-01T11:16:11;22.57;;;6.73;;
18780;SDS011;9519;51.890;8.970;2023-02-01T11:21:17;22.07;;;6.00;;
18780;SDS011;9519;51.890;8.970;2023-02-01T11:26:23;19.23;;;4.97;;
18780;SDS011;9519;51.890;8.970;2023-02-01T11:31:27;33.60;;;7.40;;
18780;SDS011;9519;51.890;8.970;2023-02-01T11:36:32;27.30;;;5.87;;
18780;SDS011;9519;51.890;8.970;2023-02-01T11:41:41;23.57;;;5.90;;
18780;SDS011;9519;51.890;8.970;2023-02-01T11:46:45;22.50;;;6.70;;
18780;SDS011;9519;51.890;8.970;2023-02-01T11:51:50;25.50;;;6.90;;
18780;SDS011;9519;51.890;8.970;2023-02-01T11:57:12;25.13;;;7.57;;
18780;SDS011;9519;51.890;8.970;2023-02-01T12:08:46;31.87;;;8.47;;
18780;SDS011;9519;51.890;8.970;2023-02-01T12:14:26;22.83;;;6.77;;
18780;SDS011;9519;51.890;8.970;2023-02-01T12:19:50;17.90;;;6.30;;
18780;SDS011;9519;51.890;8.970;2023-02-01T12:25:18;23.17;;;6.47;;
18780;SDS011;9519;51.890;8.970;2023-02-01T12:30:43;22.43;;;6.00;;
18780;SDS011;9519;51.890;8.970;2023-02-01T12:36:12;29.60;;;7.77;;
18780;SDS011;9519;51.890;8.970;2023-02-01T12:41:25;23.37;;;6.63;;
18780;SDS011;9519;51.890;8.970;2023-02-01T12:46:46;24.30;;;6.53;;
18780;SDS011;9519;51.890;8.970;2023-02-01T12:51:55;17.13;;;6.13;;
18780;SDS011;9519;51.890;8.970;2023-02-01T12:57:05;18.37;;;6.20;;
18780;SDS011;9519;51.890;8.970;2023-02-01T13:02:15;21.47;;;7.40;;
18780;SDS011;9519;51.890;8.970;2023-02-01T13:07:30;24.93;;;7.80;;
18780;SDS011;9519;51.890;8.970;2023-02-01T13:12:43;22.87;;;8.67;;
18780;SDS011;9519;51.890;8.970;2023-02-01T13:17:54;17.97;;;6.43;;
18780;SDS011;9519;51.890;8.970;2023-02-01T13:23:03;18.30;;;7.50;;
18780;SDS011;9519;51.890;8.970;2023-02-01T13:28:14;14.00;;;7.87;;
18780;SDS011;9519;51.890;8.970;2023-02-01T13:33:27;19.17;;;7.87;;
18780;SDS011;9519;51.890;8.970;2023-02-01T13:38:56;24.03;;;6.90;;
18780;SDS011;9519;51.890;8.970;2023-02-01T13:44:49;18.33;;;6.23;;
18780;SDS011;9519;51.890;8.970;2023-02-01T13:49:58;14.47;;;6.37;;
18780;SDS011;9519;51.890;8.970;2023-02-01T13:55:28;16.80;;;6.10;;
18780;SDS011;9519;51.890;8.970;2023-02-01T14:00:36;15.00;;;5.33;;
18780;SDS011;9519;51.890;8.970;2023-02-01T14:11:39;14.47;;;5.13;;
18780;SDS011;9519;51.890;8.970;2023-02-01T14:22:40;18.67;;;4.87;;
18780;SDS011;9519;51.890;8.970;2023-02-01T14:27:45;19.97;;;4.83;;
18780;SDS011;9519;51.890;8.970;2023-02-01T14:32:49;16.07;;;3.57;;
18780;SDS011;9519;51.890;8.970;2023-02-01T14:37:52;9.93;;;3.33;;
18780;SDS011;9519;51.890;8.970;2023-02-01T14:43:02;9.43;;;2.43;;
18780;SDS011;9519;51.890;8.970;2023-02-01T14:53:46;7.50;;;2.63;;
18780;SDS011;9519;51.890;8.970;2023-02-01T14:58:52;9.00;;;2.80;;
18780;SDS011;9519;51.890;8.970;2023-02-01T15:04:03;4.10;;;2.00;;
18780;SDS011;9519;51.890;8.970;2023-02-01T15:09:11;6.60;;;3.00;;
18780;SDS011;9519;51.890;8.970;2023-02-01T15:14:17;10.67;;;4.00;;
18780;SDS011;9519;51.890;8.970;2023-02-01T15:19:21;7.87;;;2.83;;
18780;SDS011;9519;51.890;8.970;2023-02-01T15:24:26;8.40;;;2.67;;
18780;SDS011;9519;51.890;8.970;2023-02-01T15:29:30;8.97;;;3.67;;
18780;SDS011;9519;51.890;8.970;2023-02-01T15:34:45;16.17;;;4.77;;
18780;SDS011;9519;51.890;8.970;2023-02-01T15:40:02;9.43;;;2.70;;
18780;SDS011;9519;51.890;8.970;2023-02-01T15:45:20;8.07;;;2.60;;
18780;SDS011;9519;51.890;8.970;2023-02-01T15:50:28;9.57;;;2.43;;
18780;SDS011;9519;51.890;8.970;2023-02-01T15:55:33;15.83;;;3.43;;
18780;SDS011;9519;51.890;8.970;2023-02-01T16:00:42;20.97;;;4.07;;
18780;SDS011;9519;51.890;8.970;2023-02-01T16:05:56;14.93;;;4.10;;
18780;SDS011;9519;51.890;8.970;2023-02-01T16:11:01;14.63;;;4.27;;
18780;SDS011;9519;51.890;8.970;2023-02-01T16:16:22;12.13;;;3.23;;
18780;SDS011;9519;51.890;8.970;2023-02-01T16:21:26;14.03;;;4.10;;
18780;SDS011;9519;51.890;8.970;2023-02-01T16:26:28;14.20;;;3.60;;
18780;SDS011;9519;51.890;8.970;2023-02-01T16:31:34;19.77;;;3.97;;
18780;SDS011;9519;51.890;8.970;2023-02-01T16:36:40;11.07;;;2.80;;
18780;SDS011;9519;51.890;8.970;2023-02-01T16:41:42;12.87;;;3.47;;
18780;SDS011;9519;51.890;8.970;2023-02-01T16:46:45;12.40;;;3.37;;
18780;SDS011;9519;51.890;8.970;2023-02-01T16:51:51;15.03;;;3.57;;
18780;SDS011;9519;51.890;8.970;2023-02-01T16:56:58;11.80;;;2.80;;
18780;SDS011;9519;51.890;8.970;2023-02-01T17:02:00;12.07;;;3.40;;
18780;SDS011;9519;51.890;8.970;2023-02-01T17:07:05;17.80;;;4.23;;
18780;SDS011;9519;51.890;8.970;2023-02-01T17:17:23;12.37;;;3.10;;
18780;SDS011;9519;51.890;8.970;2023-02-01T17:22:32;11.87;;;3.43;;
18780;SDS011;9519;51.890;8.970;2023-02-01T17:27:35;11.23;;;3.80;;
18780;SDS011;9519;51.890;8.970;2023-02-01T17:32:38;22.73;;;4.40;;
18780;SDS011;9519;51.890;8.970;2023-02-01T17:37:42;13.90;;;4.70;;
18780;SDS011;9519;51.890;8.970;2023-02-01T17:42:44;16.23;;;5.10;;
18780;SDS011;9519;51.890;8.970;2023-02-01T17:47:46;21.33;;;5.13;;
18780;SDS011;9519;51.890;8.970;2023-02-01T17:52:49;22.50;;;6.47;;
18780;SDS011;9519;51.890;8.970;2023-02-01T17:57:51;19.80;;;4.00;;
18780;SDS011;9519;51.890;8.970;2023-02-01T18:02:54;20.50;;;4.60;;
18780;SDS011;9519;51.890;8.970;2023-02-01T18:07:57;24.47;;;4.70;;
18780;SDS011;9519;51.890;8.970;2023-02-01T18:13:00;17.70;;;5.17;;
18780;SDS011;9519;51.890;8.970;2023-02-01T18:18:03;24.37;;;5.83;;
18780;SDS011;9519;51.890;8.970;2023-02-01T18:23:07;26.63;;;4.90;;
18780;SDS011;9519;51.890;8.970;2023-02-01T18:28:17;22.13;;;4.20;;
18780;SDS011;9519;51.890;8.970;2023-02-01T18:33:20;25.10;;;5.67;;
18780;SDS011;9519;51.890;8.970;2023-02-01T18:38:24;19.63;;;5.60;;
18780;SDS011;9519;51.890;8.970;2023-02-01T18:43:26;19.43;;;5.63;;
18780;SDS011;9519;51.890;8.970;2023-02-01T18:48:28;21.03;;;5.37;;
18780;SDS011;9519;51.890;8.970;2023-02-01T18:53:33;21.03;;;6.33;;
18780;SDS011;9519;51.890;8.970;2023-02-01T18:58:35;21.37;;;4.87;;
18780;SDS011;9519;51.890;8.970;2023-02-01T19:03:37;25.40;;;6.17;;
18780;SDS011;9519;51.890;8.970;2023-02-01T19:08:40;28.47;;;10.13;;
18780;SDS011;9519;51.890;8.970;2023-02-01T19:13:48;22.53;;;5.57;;
18780;SDS011;9519;51.890;8.970;2023-02-01T19:18:50;19.53;;;5.87;;
18780;SDS011;9519;51.890;8.970;2023-02-01T19:23:54;16.63;;;5.00;;
18780;SDS011;9519;51.890;8.970;2023-02-01T19:28:56;24.83;;;6.43;;
18780;SDS011;9519;51.890;8.970;2023-02-01T19:34:00;27.60;;;8.57;;
18780;SDS011;9519;51.890;8.970;2023-02-01T19:39:04;13.77;;;5.30;;
18780;SDS011;9519;51.890;8.970;2023-02-01T19:44:07;18.27;;;5.43;;
18780;SDS011;9519;51.890;8.970;2023-02-01T19:49:09;18.93;;;5.47;;
18780;SDS011;9519;51.890;8.970;2023-02-01T19:54:13;16.97;;;5.30;;
18780;SDS011;9519;51.890;8.970;2023-02-01T19:59:16;17.53;;;4.93;;
18780;SDS011;9519;51.890;8.970;2023-02-01T20:04:18;21.03;;;6.07;;
18780;SDS011;9519;51.890;8.970;2023-02-01T20:09:23;16.83;;;5.03;;
18780;SDS011;9519;51.890;8.970;2023-02-01T20:14:29;23.40;;;4.50;;
18780;SDS011;9519;51.890;8.970;2023-02-01T20:19:31;18.13;;;4.60;;
18780;SDS011;9519;51.890;8.970;2023-02-01T20:24:36;20.67;;;4.97;;
18780;SDS011;9519;51.890;8.970;2023-02-01T20:29:39;19.27;;;5.10;;
18780;SDS011;9519;51.890;8.970;2023-02-01T20:34:41;17.63;;;4.47;;
18780;SDS011;9519;51.890;8.970;2023-02-01T20:39:45;18.27;;;4.60;;
18780;SDS011;9519;51.890;8.970;2023-02-01T20:44:47;14.13;;;4.63;;
18780;SDS011;9519;51.890;8.970;2023-02-01T20:49:49;20.20;;;7.50;;
18780;SDS011;9519;51.890;8.970;2023-02-01T20:54:52;15.83;;;5.00;;
18780;SDS011;9519;51.890;8.970;2023-02-01T20:59:54;18.63;;;4.67;;
18780;SDS011;9519;51.890;8.970;2023-02-01T21:04:56;19.83;;;4.73;;
18780;SDS011;9519;51.890;8.970;2023-02-01T21:10:00;17.97;;;5.00;;
18780;SDS011;9519;51.890;8.970;2023-02-01T21:15:02;15.83;;;4.83;;
18780;SDS011;9519;51.890;8.970;2023-02-01T21:20:05;17.17;;;4.53;;
18780;SDS011;9519;51.890;8.970;2023-02-01T21:25:10;21.83;;;5.60;;
18780;SDS011;9519;51.890;8.970;2023-02-01T21:30:12;18.33;;;4.57;;
18780;SDS011;9519;51.890;8.970;2023-02-01T21:35:15;19.30;;;5.03;;
18780;SDS011;9519;51.890;8.970;2023-02-01T21:40:19;17.13;;;4.13;;
18780;SDS011;9519;51.890;8.970;2023-02-01T21:45:21;19.27;;;4.47;;
18780;SDS011;9519;51.890;8.970;2023-02-01T21:50:23;17.20;;;4.10;;
18780;SDS011;9519;51.890;8.970;2023-02-01T21:55:26;20.90;;;4.00;;
18780;SDS011;9519;51.890;8.970;2023-02-01T22:00:28;15.63;;;3.90;;
18780;SDS011;9519;51.890;8.970;2023-02-01T22:05:30;15.50;;;3.10;;
18780;SDS011;9519;51.890;8.970;2023-02-01T22:10:34;20.90;;;3.77;;
18780;SDS011;9519;51.890;8.970;2023-02-01T22:15:38;17.50;;;3.63;;
18780;SDS011;9519;51.890;8.970;2023-02-01T22:20:40;19.27;;;3.20;;
18780;SDS011;9519;51.890;8.970;2023-02-01T22:25:43;15.47;;;3.07;;
18780;SDS011;9519;51.890;8.970;2023-02-01T22:30:45;21.13;;;3.70;;
18780;SDS011;9519;51.890;8.970;2023-02-01T22:35:47;13.67;;;3.37;;
18780;SDS011;9519;51.890;8.970;2023-02-01T22:40:53;12.00;;;2.93;;
18780;SDS011;9519;51.890;8.970;2023-02-01T22:45:57;15.20;;;3.20;;
18780;SDS011;9519;51.890;8.970;2023-02-01T22:51:01;20.17;;;3.53;;
18780;SDS011;9519;51.890;8.970;2023-02-01T22:56:06;18.97;;;3.50;;
18780;SDS011;9519;51.890;8.970;2023-02-01T23:01:10;20.47;;;4.07;;
18780;SDS011;9519;51.890;8.970;2023-02-01T23:06:15;15.97;;;3.47;;
18780;SDS011;9519;51.890;8.970;2023-02-01T23:11:21;22.50;;;4.87;;
18780;SDS011;9519;51.890;8.970;2023-02-01T23:16:23;16.17;;;3.53;;
18780;SDS011;9519;51.890;8.970;2023-02-01T23:21:25;14.77;;;4.23;;
18780;SDS011;9519;51.890;8.970;2023-02-01T23:26:29;17.90;;;3.37;;
18780;SDS011;9519;51.890;8.970;2023-02-01T23:31:32;18.67;;;3.97;;
18780;SDS011;9519;51.890;8.970;2023-02-01T23:36:35;19.77;;;3.50;;
18780;SDS011;9519;51.890;8.970;2023-02-01T23:41:38;26.17;;;3.87;;
18780;SDS011;9519;51.890;8.970;2023-02-01T23:46:41;15.97;;;3.63;;
18780;SDS011;9519;51.890;8.970;2023-02-01T23:51:46;20.77;;;3.03;;
18780;SDS011;9519;51.890;8.970;2023-02-01T23:56:53;19.23;;;3.57;;
